createdAt,value
2023-03-06T00:00:47.643Z,3.67
2023-03-06T00:04:02.987Z,3.66
2023-03-06T00:07:11.947Z,3.66
2023-03-06T00:10:29.931Z,3.66
2023-03-06T00:13:44.935Z,3.61
2023-03-06T00:17:02.930Z,3.71
2023-03-06T00:20:06.150Z,3.72
2023-03-06T00:23:20.913Z,3.60
2023-03-06T00:26:28.921Z,3.60
2023-03-06T00:29:38.283Z,3.70
2023-03-06T00:32:47.928Z,3.72
2023-03-06T00:35:56.665Z,3.70
2023-03-06T00:39:04.933Z,3.69
2023-03-06T00:42:13.581Z,3.68
2023-03-06T00:45:22.977Z,3.68
2023-03-06T00:48:39.919Z,3.69
2023-03-06T00:51:48.666Z,3.70
2023-03-06T00:55:03.908Z,3.63
2023-03-06T00:58:11.919Z,3.66
2023-03-06T01:01:26.972Z,3.68
2023-03-06T01:04:29.078Z,3.66
2023-03-06T01:07:43.927Z,3.67
2023-03-06T01:10:52.483Z,3.66
2023-03-06T01:14:06.908Z,3.67
2023-03-06T01:17:21.912Z,3.67
2023-03-06T01:20:36.910Z,3.69
2023-03-06T01:23:45.914Z,3.59
2023-03-06T01:27:00.906Z,3.75
2023-03-06T01:30:10.900Z,3.74
2023-03-06T01:33:25.910Z,3.73
2023-03-06T01:36:34.758Z,3.72
2023-03-06T01:39:49.916Z,3.72
2023-03-06T01:42:51.864Z,3.71
2023-03-06T01:46:35.899Z,3.74
2023-03-06T01:49:44.564Z,3.76
2023-03-06T01:53:02.915Z,3.77
2023-03-06T01:56:13.571Z,3.77
2023-03-06T01:59:22.908Z,3.75
2023-03-06T02:02:37.908Z,3.76
2023-03-06T02:05:46.619Z,3.77
2023-03-06T02:09:02.902Z,3.78
2023-03-06T02:12:23.903Z,3.77
2023-03-06T02:16:04.934Z,3.81
2023-03-06T02:19:38.901Z,3.72
2023-03-06T02:23:29.959Z,3.82
2023-03-06T02:26:40.923Z,3.77
2023-03-06T02:29:55.901Z,3.65
2023-03-06T02:33:12.909Z,3.78
2023-03-06T02:36:27.912Z,3.79
2023-03-06T02:39:48.916Z,3.77
2023-03-06T02:42:54.279Z,3.82
2023-03-06T02:46:08.973Z,3.82
2023-03-06T02:49:17.565Z,3.82
2023-03-06T02:52:25.900Z,3.83
2023-03-06T02:55:35.289Z,3.76
2023-03-06T02:58:44.907Z,3.83
2023-03-06T03:01:53.758Z,3.81
2023-03-06T03:05:01.880Z,3.77
2023-03-06T03:08:16.912Z,3.80
2023-03-06T03:11:18.860Z,3.72
2023-03-06T03:14:33.905Z,3.80
2023-03-06T03:17:48.890Z,3.78
2023-03-06T03:21:04.902Z,3.77
2023-03-06T03:24:14.042Z,3.80
2023-03-06T03:27:22.513Z,3.82
2023-03-06T03:30:36.902Z,3.82
2023-03-06T03:33:45.900Z,3.84
2023-03-06T03:36:54.854Z,3.86
2023-03-06T03:40:02.891Z,3.87
2023-03-06T03:43:11.520Z,3.89
2023-03-06T03:46:19.902Z,3.90
2023-03-06T03:49:28.532Z,3.89
2023-03-06T03:52:36.890Z,3.91
2023-03-06T03:55:48.091Z,3.87
2023-03-06T03:58:56.892Z,3.90
2023-03-06T04:02:05.768Z,3.80
2023-03-06T04:05:14.938Z,3.87
2023-03-06T04:08:31.886Z,3.88
2023-03-06T04:11:46.876Z,3.84
2023-03-06T04:14:55.526Z,3.90
2023-03-06T04:18:10.892Z,3.87
2023-03-06T04:21:25.904Z,3.86
2023-03-06T04:24:27.828Z,3.92
2023-03-06T04:27:42.913Z,3.89
2023-03-06T04:30:50.912Z,3.90
2023-03-06T04:33:59.574Z,3.92
2023-03-06T04:37:18.896Z,3.92
2023-03-06T04:40:36.930Z,3.92
2023-03-06T04:43:45.507Z,3.92
2023-03-06T04:46:59.919Z,3.87
2023-03-06T04:50:10.062Z,3.93
2023-03-06T04:53:24.892Z,3.97
2023-03-06T04:56:26.772Z,3.96
2023-03-06T04:59:41.898Z,3.94
2023-03-06T05:02:57.896Z,3.92
2023-03-06T05:05:59.844Z,3.89
2023-03-06T05:09:14.888Z,3.89
2023-03-06T05:12:23.421Z,3.89
2023-03-06T05:15:37.879Z,3.88
2023-03-06T05:18:52.895Z,3.89
2023-03-06T05:22:01.710Z,3.90
2023-03-06T05:25:16.906Z,3.86
2023-03-06T05:28:18.939Z,3.90
2023-03-06T05:31:33.946Z,3.82
2023-03-06T05:34:42.673Z,3.87
2023-03-06T05:37:57.925Z,3.88
2023-03-06T05:41:12.904Z,3.87
2023-03-06T05:44:14.874Z,3.88
2023-03-06T05:47:29.905Z,3.86
2023-03-06T05:50:39.182Z,3.81
2023-03-06T05:53:47.885Z,3.88
2023-03-06T05:56:56.444Z,3.91
2023-03-06T06:00:04.892Z,3.88
2023-03-06T06:03:13.869Z,3.88
2023-03-06T06:06:28.887Z,3.83
2023-03-06T06:09:43.907Z,3.86
2023-03-06T06:12:51.927Z,3.86
2023-03-06T06:16:00.537Z,3.89
2023-03-06T06:19:08.915Z,3.92
2023-03-06T06:22:17.433Z,3.95
2023-03-06T06:25:31.865Z,3.96
2023-03-06T06:28:46.863Z,3.97
2023-03-06T06:31:56.870Z,3.99
2023-03-06T06:35:12.869Z,4.01
2023-03-06T06:38:27.869Z,4.06
2023-03-06T06:41:54.798Z,4.01
2023-03-06T06:45:12.885Z,4.10
2023-03-06T06:48:27.882Z,4.13
2023-03-06T06:51:36.561Z,4.16
2023-03-06T06:54:52.877Z,4.18
2023-03-06T06:58:07.883Z,4.23
2023-03-06T07:01:22.820Z,4.21
2023-03-06T07:04:42.468Z,4.32
2023-03-06T07:07:51.122Z,4.46
2023-03-06T07:11:05.892Z,4.72
2023-03-06T07:14:14.863Z,4.56
2023-03-06T07:17:23.430Z,4.51
2023-03-06T07:20:45.886Z,4.47
2023-03-06T07:23:54.516Z,4.44
2023-03-06T07:27:09.877Z,4.47
2023-03-06T07:30:18.823Z,4.50
2023-03-06T07:33:27.011Z,4.51
2023-03-06T07:36:35.502Z,4.48
2023-03-06T07:39:43.890Z,4.42
2023-03-06T07:43:09.114Z,4.43
2023-03-06T07:46:19.879Z,4.42
2023-03-06T07:49:28.677Z,4.46
2023-03-06T07:52:44.863Z,4.47
2023-03-06T07:55:52.936Z,4.51
2023-03-06T07:59:01.595Z,4.53
2023-03-06T08:02:18.890Z,4.51
2023-03-06T08:05:21.025Z,4.46
2023-03-06T08:08:35.964Z,4.53
2023-03-06T08:11:50.850Z,4.57
2023-03-06T08:14:58.888Z,4.60
2023-03-06T08:18:13.869Z,4.45
2023-03-06T08:21:24.623Z,4.49
2023-03-06T08:24:40.873Z,4.61
2023-03-06T08:27:42.771Z,4.53
2023-03-06T08:30:57.889Z,4.40
2023-03-06T08:34:20.869Z,4.38
2023-03-06T08:37:35.989Z,4.46
2023-03-06T08:40:44.892Z,4.40
2023-03-06T08:44:01.119Z,4.59
2023-03-06T08:47:09.579Z,4.77
2023-03-06T08:50:18.858Z,4.85
2023-03-06T08:53:41.731Z,5.00
2023-03-06T08:56:58.018Z,5.14
2023-03-06T09:00:07.679Z,5.41
2023-03-06T09:03:22.893Z,5.74
2023-03-06T09:06:26.345Z,5.93
2023-03-06T09:09:40.860Z,5.89
2023-03-06T09:12:50.107Z,5.74
2023-03-06T09:16:05.855Z,5.79
2023-03-06T09:19:21.201Z,5.98
2023-03-06T09:22:35.878Z,6.08
2023-03-06T09:25:48.762Z,6.00
2023-03-06T09:29:02.243Z,6.38
2023-03-06T09:32:12.936Z,6.85
2023-03-06T09:35:21.460Z,6.70
2023-03-06T09:38:36.893Z,6.94
2023-03-06T09:41:54.867Z,7.10
2023-03-06T09:45:11.992Z,6.91
2023-03-06T09:48:22.878Z,6.98
2023-03-06T09:51:54.021Z,6.96
2023-03-06T09:55:24.884Z,7.34
2023-03-06T09:58:44.011Z,7.33
2023-03-06T10:02:20.982Z,7.23
2023-03-06T10:05:38.969Z,6.81
2023-03-06T10:08:57.853Z,7.08
2023-03-06T10:12:26.869Z,7.61
2023-03-06T10:15:47.959Z,7.57
2023-03-06T10:18:50.732Z,7.35
2023-03-06T10:22:31.849Z,7.09
2023-03-06T10:26:00.926Z,6.93
2023-03-06T10:29:19.209Z,6.97
2023-03-06T10:32:59.741Z,6.71
2023-03-06T10:36:21.857Z,6.83
2023-03-06T10:39:30.513Z,6.82
2023-03-06T10:42:38.851Z,6.63
2023-03-06T10:45:50.789Z,6.52
2023-03-06T10:49:09.844Z,6.51
2023-03-06T10:52:18.799Z,6.59
2023-03-06T10:55:36.870Z,6.73
2023-03-06T10:59:27.870Z,6.80
2023-03-06T11:02:45.854Z,6.59
2023-03-06T11:05:57.503Z,6.76
2023-03-06T11:09:33.958Z,6.68
2023-03-06T11:12:44.850Z,6.71
2023-03-06T11:16:04.993Z,6.35
2023-03-06T11:19:27.911Z,6.87
2023-03-06T11:22:31.652Z,6.87
2023-03-06T11:25:56.872Z,6.88
2023-03-06T11:29:29.411Z,7.14
2023-03-06T11:32:47.906Z,7.00
2023-03-06T11:36:16.090Z,7.15
2023-03-06T11:39:45.859Z,7.21
2023-03-06T11:43:48.628Z,7.12
2023-03-06T11:47:22.836Z,7.30
2023-03-06T11:50:42.862Z,7.36
2023-03-06T11:53:51.842Z,7.46
2023-03-06T11:57:15.362Z,7.46
2023-03-06T12:00:41.912Z,7.45
2023-03-06T12:04:31.678Z,7.54
2023-03-06T12:08:01.862Z,7.42
2023-03-06T12:11:33.449Z,7.39
2023-03-06T12:14:50.860Z,7.48
2023-03-06T12:18:27.860Z,7.55
2023-03-06T12:21:48.167Z,7.63
2023-03-06T12:25:05.858Z,7.64
2023-03-06T12:28:36.527Z,7.60
2023-03-06T12:31:48.808Z,7.41
2023-03-06T12:35:05.953Z,7.64
2023-03-06T12:38:39.619Z,7.70
2023-03-06T12:42:22.607Z,7.81
2023-03-06T12:45:44.920Z,7.85
2023-03-06T12:48:59.212Z,7.88
2023-03-06T12:52:18.548Z,7.97
2023-03-06T12:55:42.160Z,7.97
2023-03-06T12:59:05.695Z,7.94
2023-03-06T13:02:43.636Z,7.99
2023-03-06T13:06:19.117Z,7.98
2023-03-06T13:09:59.651Z,8.24
2023-03-06T13:13:32.261Z,8.31
2023-03-06T13:16:47.233Z,8.27
2023-03-06T13:20:20.861Z,8.31
2023-03-06T13:23:35.868Z,8.29
2023-03-06T13:26:51.892Z,8.31
2023-03-06T13:30:06.662Z,8.32
2023-03-06T13:33:33.840Z,8.34
2023-03-06T13:36:48.949Z,8.29
2023-03-06T13:39:58.378Z,8.01
2023-03-06T13:43:13.859Z,7.89
2023-03-06T13:46:33.648Z,7.67
2023-03-06T13:49:53.260Z,7.57
2023-03-06T13:53:10.991Z,7.58
2023-03-06T13:56:47.944Z,7.61
2023-03-06T14:00:15.843Z,7.69
2023-03-06T14:03:40.821Z,7.67
2023-03-06T14:06:59.840Z,7.47
2023-03-06T14:10:20.829Z,7.23
2023-03-06T14:13:45.251Z,7.31
2023-03-06T14:16:57.403Z,7.36
2023-03-06T14:20:25.865Z,7.33
2023-03-06T14:23:36.356Z,7.31
2023-03-06T14:26:54.856Z,7.21
2023-03-06T14:30:15.883Z,7.15
2023-03-06T14:33:32.864Z,7.12
2023-03-06T14:36:53.601Z,7.27
2023-03-06T14:40:15.888Z,7.20
2023-03-06T14:43:32.837Z,7.16
2023-03-06T14:46:35.108Z,7.09
2023-03-06T14:49:50.003Z,6.99
2023-03-06T14:53:10.759Z,6.86
2023-03-06T14:56:27.956Z,6.75
2023-03-06T14:59:56.844Z,6.50
2023-03-06T15:02:59.706Z,6.53
2023-03-06T15:06:21.852Z,6.54
2023-03-06T15:09:38.830Z,6.49
2023-03-06T15:12:46.844Z,6.48
2023-03-06T15:16:07.547Z,6.54
2023-03-06T15:19:28.835Z,6.47
2023-03-06T15:22:44.120Z,6.58
2023-03-06T15:25:58.865Z,6.51
2023-03-06T15:32:55.846Z,6.57
2023-03-06T15:36:35.018Z,6.55
2023-03-06T15:39:50.194Z,6.50
2023-03-06T15:42:58.625Z,6.50
2023-03-06T15:46:17.847Z,6.47
2023-03-06T15:49:19.804Z,6.36
2023-03-06T15:52:46.798Z,6.43
2023-03-06T15:55:50.256Z,6.41
2023-03-06T15:59:21.794Z,6.43
2023-03-06T16:02:50.862Z,6.40
2023-03-06T16:05:59.528Z,6.38
2023-03-06T16:09:08.880Z,6.27
2023-03-06T16:12:20.529Z,6.21
2023-03-06T16:15:37.811Z,6.09
2023-03-06T16:18:46.838Z,6.00
2023-03-06T16:22:08.826Z,5.93
2023-03-06T16:25:17.844Z,6.02
2023-03-06T16:28:26.874Z,5.96
2023-03-06T16:31:42.866Z,5.91
2023-03-06T16:34:51.717Z,5.83
2023-03-06T16:38:07.224Z,5.76
2023-03-06T16:41:09.424Z,5.73
2023-03-06T16:44:24.843Z,5.65
2023-03-06T16:47:26.846Z,5.59
2023-03-06T16:50:45.185Z,5.62
2023-03-06T16:53:55.580Z,5.55
2023-03-06T16:57:11.211Z,5.50
2023-03-06T17:00:20.894Z,5.46
2023-03-06T17:03:29.640Z,5.56
2023-03-06T17:06:45.822Z,5.52
2023-03-06T17:09:53.837Z,5.51
2023-03-06T17:13:12.558Z,5.52
2023-03-06T17:16:28.829Z,5.47
2023-03-06T17:19:47.462Z,5.38
2023-03-06T17:23:01.853Z,5.34
2023-03-06T17:26:23.037Z,5.39
2023-03-06T17:29:25.661Z,5.37
2023-03-06T17:32:41.313Z,5.41
2023-03-06T17:35:57.015Z,5.30
2023-03-06T17:39:00.366Z,5.17
2023-03-06T17:42:15.214Z,5.14
2023-03-06T17:45:30.216Z,5.16
2023-03-06T17:48:39.855Z,5.13
2023-03-06T17:51:49.516Z,5.11
2023-03-06T17:55:04.824Z,5.12
2023-03-06T17:58:14.292Z,5.09
2023-03-06T18:01:32.253Z,5.10
2023-03-06T18:04:47.117Z,5.09
2023-03-06T18:07:56.294Z,5.05
2023-03-06T18:11:07.474Z,5.10
2023-03-06T18:14:17.168Z,5.09
2023-03-06T18:17:26.263Z,5.13
2023-03-06T18:20:35.369Z,5.15
2023-03-06T18:23:51.062Z,5.18
2023-03-06T18:26:59.827Z,5.14
2023-03-06T18:30:15.824Z,5.16
2023-03-06T18:33:18.401Z,5.16
2023-03-06T18:36:36.152Z,5.13
2023-03-06T18:39:52.234Z,5.11
2023-03-06T18:43:08.319Z,5.13
2023-03-06T18:46:23.756Z,5.10
2023-03-06T18:49:27.561Z,5.11
2023-03-06T18:52:47.191Z,5.02
2023-03-06T18:56:03.941Z,4.95
2023-03-06T18:59:22.236Z,4.99
2023-03-06T19:02:32.724Z,4.96
2023-03-06T19:05:46.089Z,4.98
2023-03-06T19:09:02.394Z,4.91
2023-03-06T19:12:12.467Z,4.90
2023-03-06T19:15:20.815Z,4.93
2023-03-06T19:18:30.824Z,4.94
2023-03-06T19:21:53.253Z,4.88
2023-03-06T19:25:03.904Z,4.99
2023-03-06T19:28:13.691Z,4.94
2023-03-06T19:31:25.780Z,4.92
2023-03-06T19:34:35.459Z,4.85
2023-03-06T19:37:50.967Z,4.86
2023-03-06T19:41:06.826Z,4.88
2023-03-06T19:44:22.268Z,4.89
2023-03-06T19:47:39.190Z,4.86
2023-03-06T19:50:41.917Z,4.84
2023-03-06T19:53:58.324Z,4.82
2023-03-06T19:57:07.276Z,4.80
2023-03-06T20:00:23.330Z,4.80
2023-03-06T20:03:33.786Z,4.78
2023-03-06T20:06:43.800Z,4.66
2023-03-06T20:09:59.840Z,4.65
2023-03-06T20:13:09.463Z,4.68
2023-03-06T20:16:18.306Z,4.66
2023-03-06T20:19:34.013Z,4.64
2023-03-06T20:22:49.460Z,4.61
2023-03-06T20:25:58.797Z,4.60
2023-03-06T20:29:15.273Z,4.59
2023-03-06T20:32:24.321Z,4.60
2023-03-06T20:35:32.816Z,4.58
2023-03-06T20:38:49.200Z,4.55
2023-03-06T20:41:52.879Z,4.57
2023-03-06T20:45:09.279Z,4.57
2023-03-06T20:48:11.471Z,4.60
2023-03-06T20:51:29.139Z,4.62
2023-03-06T20:54:44.179Z,4.64
2023-03-06T20:57:59.114Z,4.65
2023-03-06T21:01:08.121Z,4.70
2023-03-06T21:04:24.760Z,4.72
2023-03-06T21:07:27.387Z,4.70
2023-03-06T21:10:43.838Z,4.60
2023-03-06T21:13:53.190Z,4.71
2023-03-06T21:17:07.820Z,4.64
2023-03-06T21:20:16.951Z,4.71
2023-03-06T21:23:31.825Z,4.70
2023-03-06T21:26:40.641Z,4.69
2023-03-06T21:29:56.112Z,4.68
2023-03-06T21:33:04.863Z,4.63
2023-03-06T21:36:19.847Z,4.56
2023-03-06T21:39:22.051Z,4.61
2023-03-06T21:42:36.845Z,4.57
2023-03-06T21:45:54.043Z,4.54
2023-03-06T21:49:11.859Z,4.48
2023-03-06T21:52:20.425Z,4.47
2023-03-06T21:55:28.914Z,4.43
2023-03-06T21:58:44.942Z,4.35
2023-03-06T22:01:53.812Z,4.27
2023-03-06T22:05:08.791Z,4.21
2023-03-06T22:08:10.993Z,4.20
2023-03-06T22:11:27.812Z,4.20
2023-03-06T22:14:42.807Z,4.09
2023-03-06T22:17:57.791Z,4.21
2023-03-06T22:21:21.814Z,4.14
2023-03-06T22:24:29.788Z,4.11
2023-03-06T22:27:44.821Z,4.09
2023-03-06T22:30:53.811Z,4.04
2023-03-06T22:34:08.843Z,3.93
2023-03-06T22:37:17.809Z,3.99
2023-03-06T22:40:26.500Z,3.94
2023-03-06T22:43:34.865Z,3.79
2023-03-06T22:46:50.807Z,3.89
2023-03-06T22:49:52.784Z,3.90
2023-03-06T22:53:07.807Z,3.85
2023-03-06T22:56:25.796Z,3.84
2023-03-06T22:59:33.807Z,3.84
2023-03-06T23:02:42.413Z,3.83
2023-03-06T23:05:57.814Z,3.82
2023-03-06T23:09:06.024Z,3.83
2023-03-06T23:12:20.799Z,3.88
2023-03-06T23:15:35.815Z,3.94
2023-03-06T23:18:45.788Z,3.84
2023-03-06T23:22:01.101Z,3.82
2023-03-06T23:25:16.797Z,3.79
2023-03-06T23:28:31.815Z,3.68
2023-03-06T23:31:33.728Z,3.69
2023-03-06T23:34:48.825Z,3.63
2023-03-06T23:38:03.794Z,3.59
2023-03-06T23:41:21.808Z,3.57
2023-03-06T23:44:30.600Z,3.53
2023-03-06T23:47:45.783Z,3.50
2023-03-06T23:50:48.077Z,3.48
2023-03-06T23:54:04.802Z,3.47
2023-03-06T23:57:13.387Z,3.45
